createdAt,value
2022-07-29T00:00:21.610Z,17.33
2022-07-29T00:03:03.910Z,17.31
2022-07-29T00:05:32.293Z,17.25
2022-07-29T00:08:00.405Z,17.16
2022-07-29T00:10:28.397Z,17.16
2022-07-29T00:12:56.418Z,17.18
2022-07-29T00:15:24.494Z,17.19
2022-07-29T00:17:52.470Z,17.17
2022-07-29T00:20:20.752Z,17.18
2022-07-29T00:22:48.660Z,17.20
2022-07-29T00:25:16.696Z,17.23
2022-07-29T00:27:44.774Z,17.24
2022-07-29T00:30:13.664Z,17.19
2022-07-29T00:32:41.843Z,17.18
2022-07-29T00:35:29.464Z,17.19
2022-07-29T00:37:57.442Z,17.17
2022-07-29T00:40:26.058Z,17.12
2022-07-29T00:42:54.244Z,17.09
2022-07-29T00:45:23.326Z,17.12
2022-07-29T00:47:51.484Z,17.13
2022-07-29T00:50:19.811Z,17.09
2022-07-29T00:52:47.967Z,17.04
2022-07-29T00:55:17.490Z,17.02
2022-07-29T00:57:46.343Z,17.03
2022-07-29T01:00:20.737Z,17.06
2022-07-29T01:02:49.396Z,17.02
2022-07-29T01:05:23.194Z,16.95
2022-07-29T01:07:54.759Z,16.94
2022-07-29T01:10:23.729Z,16.94
2022-07-29T01:12:54.040Z,16.93
2022-07-29T01:15:23.374Z,16.92
2022-07-29T01:18:29.216Z,16.93
2022-07-29T01:21:26.748Z,16.95
2022-07-29T01:23:57.637Z,16.92
2022-07-29T01:26:47.140Z,16.91
2022-07-29T01:29:50.719Z,16.91
2022-07-29T01:32:28.736Z,16.87
2022-07-29T01:35:05.294Z,16.84
2022-07-29T01:37:51.365Z,16.79
2022-07-29T01:40:25.402Z,16.74
2022-07-29T01:42:59.940Z,16.67
2022-07-29T01:45:32.799Z,16.59
2022-07-29T01:48:11.629Z,16.53
2022-07-29T01:50:49.516Z,16.53
2022-07-29T01:53:47.578Z,16.58
2022-07-29T01:56:19.037Z,16.63
2022-07-29T01:58:48.451Z,16.59
2022-07-29T02:01:18.071Z,16.54
2022-07-29T02:03:47.764Z,16.53
2022-07-29T02:06:20.338Z,16.55
2022-07-29T02:08:50.017Z,16.56
2022-07-29T02:11:18.659Z,16.55
2022-07-29T02:13:48.704Z,16.57
2022-07-29T02:16:21.214Z,16.60
2022-07-29T02:18:51.704Z,16.58
2022-07-29T02:21:25.310Z,16.57
2022-07-29T02:23:55.697Z,16.59
2022-07-29T02:26:27.049Z,16.63
2022-07-29T02:28:57.577Z,16.64
2022-07-29T02:31:30.272Z,16.65
2022-07-29T02:33:58.948Z,16.66
2022-07-29T02:36:28.358Z,16.64
2022-07-29T02:38:58.991Z,16.61
2022-07-29T02:41:34.637Z,16.59
2022-07-29T02:44:11.761Z,16.57
2022-07-29T02:46:49.230Z,16.53
2022-07-29T02:49:23.378Z,16.52
2022-07-29T02:51:58.489Z,16.53
2022-07-29T02:54:54.479Z,16.55
2022-07-29T02:57:36.140Z,16.54
2022-07-29T03:00:28.398Z,16.49
2022-07-29T03:03:00.553Z,16.47
2022-07-29T03:05:28.834Z,16.50
2022-07-29T03:07:59.876Z,16.52
2022-07-29T03:10:28.810Z,16.51
2022-07-29T03:12:59.164Z,16.49
2022-07-29T03:15:29.020Z,16.47
2022-07-29T03:17:57.807Z,16.45
2022-07-29T03:20:28.243Z,16.47
2022-07-29T03:22:56.415Z,16.46
2022-07-29T03:25:24.616Z,16.46
2022-07-29T03:27:52.673Z,16.48
2022-07-29T03:30:22.207Z,16.48
2022-07-29T03:32:52.566Z,16.47
2022-07-29T03:35:21.709Z,16.45
2022-07-29T03:37:50.106Z,16.51
2022-07-29T03:40:24.714Z,16.46
2022-07-29T03:42:55.946Z,16.43
2022-07-29T03:45:25.045Z,16.48
2022-07-29T03:48:00.571Z,16.56
2022-07-29T03:50:31.860Z,16.55
2022-07-29T03:53:01.976Z,16.57
2022-07-29T03:55:37.727Z,16.60
2022-07-29T03:58:07.784Z,16.63
2022-07-29T04:00:37.708Z,16.66
2022-07-29T04:03:10.747Z,16.73
2022-07-29T04:05:40.264Z,16.80
2022-07-29T04:08:08.338Z,16.82
2022-07-29T04:10:36.826Z,16.83
2022-07-29T04:13:04.732Z,16.88
2022-07-29T04:15:32.854Z,16.89
2022-07-29T04:18:00.912Z,16.92
2022-07-29T04:20:28.925Z,16.96
2022-07-29T04:22:56.900Z,16.98
2022-07-29T04:25:24.980Z,17.01
2022-07-29T04:28:02.152Z,17.05
2022-07-29T04:30:31.942Z,17.10
2022-07-29T04:33:01.948Z,17.12
2022-07-29T04:35:38.219Z,17.21
2022-07-29T04:38:07.470Z,17.30
2022-07-29T04:40:43.560Z,17.30
2022-07-29T04:43:12.561Z,17.38
2022-07-29T04:45:42.635Z,17.45
2022-07-29T04:48:10.706Z,17.58
2022-07-29T04:50:42.065Z,17.66
2022-07-29T04:53:09.988Z,17.74
2022-07-29T04:55:38.915Z,17.77
2022-07-29T04:58:07.411Z,17.83
2022-07-29T05:00:35.999Z,17.89
2022-07-29T05:03:05.160Z,17.92
2022-07-29T05:05:33.581Z,17.94
2022-07-29T05:08:01.556Z,17.95
2022-07-29T05:10:30.041Z,18.00
2022-07-29T05:12:58.013Z,18.04
2022-07-29T05:15:26.333Z,18.08
2022-07-29T05:17:54.368Z,18.09
2022-07-29T05:20:27.198Z,18.11
2022-07-29T05:22:57.276Z,18.17
2022-07-29T05:25:40.865Z,18.27
2022-07-29T05:28:13.277Z,18.37
2022-07-29T05:30:41.324Z,18.41
2022-07-29T05:33:09.531Z,18.35
2022-07-29T05:36:00.660Z,18.35
2022-07-29T05:38:29.742Z,18.39
2022-07-29T05:40:59.766Z,18.44
2022-07-29T05:43:31.311Z,18.45
2022-07-29T05:45:59.351Z,18.46
2022-07-29T05:48:27.872Z,18.48
2022-07-29T05:50:56.102Z,18.55
2022-07-29T05:53:24.433Z,18.64
2022-07-29T05:55:53.425Z,18.72
2022-07-29T05:58:21.607Z,18.79
2022-07-29T06:00:49.545Z,18.85
2022-07-29T06:03:17.551Z,18.92
2022-07-29T06:05:45.728Z,18.97
2022-07-29T06:08:13.646Z,19.04
2022-07-29T06:10:41.577Z,19.13
2022-07-29T06:13:09.551Z,19.18
2022-07-29T06:15:37.474Z,19.21
2022-07-29T06:18:08.771Z,19.24
2022-07-29T06:20:36.844Z,19.34
2022-07-29T06:23:05.739Z,19.39
2022-07-29T06:25:35.958Z,19.46
2022-07-29T06:28:04.631Z,19.49
2022-07-29T06:30:32.780Z,19.54
2022-07-29T06:33:02.546Z,19.56
2022-07-29T06:35:38.973Z,19.59
2022-07-29T06:38:29.954Z,19.65
2022-07-29T06:41:11.203Z,19.72
2022-07-29T06:43:51.753Z,19.81
2022-07-29T06:46:24.004Z,19.96
2022-07-29T06:48:53.045Z,20.02
2022-07-29T06:51:23.373Z,20.05
2022-07-29T06:54:00.072Z,20.12
2022-07-29T06:56:38.849Z,20.20
2022-07-29T06:59:10.019Z,20.27
2022-07-29T07:01:39.377Z,20.37
2022-07-29T07:04:09.996Z,20.44
2022-07-29T07:06:39.294Z,20.48
2022-07-29T07:09:07.603Z,20.54
2022-07-29T07:11:35.785Z,20.65
2022-07-29T07:14:04.688Z,20.77
2022-07-29T07:16:33.759Z,20.88
2022-07-29T07:19:02.068Z,20.95
2022-07-29T07:21:31.103Z,20.99
2022-07-29T07:24:00.272Z,21.03
2022-07-29T07:26:29.253Z,21.15
2022-07-29T07:28:57.159Z,21.28
2022-07-29T07:31:25.252Z,21.34
2022-07-29T07:33:54.713Z,21.38
2022-07-29T07:36:23.812Z,21.41
2022-07-29T07:38:51.811Z,21.48
2022-07-29T07:41:20.061Z,21.57
2022-07-29T07:43:48.269Z,21.62
2022-07-29T07:46:17.017Z,21.66
2022-07-29T07:48:45.470Z,21.73
2022-07-29T07:51:13.419Z,21.79
2022-07-29T07:53:41.356Z,21.84
2022-07-29T07:56:11.472Z,21.93
2022-07-29T07:58:40.632Z,22.06
2022-07-29T08:01:09.760Z,22.17
2022-07-29T08:03:38.263Z,22.26
2022-07-29T08:06:07.469Z,22.34
2022-07-29T08:08:35.542Z,22.37
2022-07-29T08:11:09.091Z,22.41
2022-07-29T08:13:39.021Z,22.45
2022-07-29T08:16:16.479Z,22.50
2022-07-29T08:18:46.560Z,22.59
2022-07-29T08:21:16.522Z,22.69
2022-07-29T08:23:55.834Z,22.76
2022-07-29T08:26:27.091Z,22.87
2022-07-29T08:28:55.075Z,23.01
2022-07-29T08:31:25.235Z,23.14
2022-07-29T08:33:53.257Z,23.24
2022-07-29T08:36:22.221Z,23.35
2022-07-29T08:38:50.801Z,23.48
2022-07-29T08:41:20.403Z,23.48
2022-07-29T08:43:50.445Z,23.55
2022-07-29T08:46:18.800Z,23.60
2022-07-29T08:48:48.236Z,23.74
2022-07-29T08:51:20.100Z,23.89
2022-07-29T08:53:50.023Z,24.07
2022-07-29T08:56:19.529Z,24.18
2022-07-29T08:58:51.630Z,24.22
2022-07-29T09:01:36.137Z,24.13
2022-07-29T09:04:13.032Z,24.11
2022-07-29T09:06:45.607Z,24.27
2022-07-29T09:09:15.568Z,24.55
2022-07-29T09:11:44.585Z,24.83
2022-07-29T09:14:14.674Z,24.99
2022-07-29T09:16:57.639Z,25.29
2022-07-29T09:19:31.163Z,25.64
2022-07-29T09:22:04.192Z,25.67
2022-07-29T09:24:40.838Z,25.41
2022-07-29T09:27:23.620Z,25.06
2022-07-29T09:30:02.345Z,24.66
2022-07-29T09:32:32.472Z,24.70
2022-07-29T09:35:31.516Z,25.06
2022-07-29T09:38:14.367Z,25.03
2022-07-29T09:40:42.439Z,26.05
2022-07-29T09:43:14.509Z,27.48
2022-07-29T09:45:42.507Z,28.85
2022-07-29T09:48:26.008Z,29.61
2022-07-29T09:50:55.108Z,29.60
2022-07-29T09:53:41.196Z,29.26
2022-07-29T09:56:09.578Z,29.14
2022-07-29T09:58:37.756Z,29.22
2022-07-29T10:01:05.876Z,28.82
2022-07-29T10:03:51.170Z,28.39
2022-07-29T10:06:19.278Z,28.10
2022-07-29T10:08:48.006Z,27.84
2022-07-29T10:11:17.702Z,27.49
2022-07-29T10:13:48.446Z,27.28
2022-07-29T10:16:18.007Z,27.05
2022-07-29T10:18:47.923Z,26.95
2022-07-29T10:21:34.546Z,26.89
2022-07-29T10:24:06.044Z,27.05
2022-07-29T10:26:34.274Z,27.22
2022-07-29T10:29:02.280Z,27.42
2022-07-29T10:31:43.331Z,27.54
2022-07-29T10:34:26.951Z,27.74
2022-07-29T10:37:36.009Z,27.82
2022-07-29T10:40:47.989Z,28.04
2022-07-29T10:43:24.095Z,28.56
2022-07-29T10:45:59.392Z,28.91
2022-07-29T10:48:28.023Z,29.39
2022-07-29T10:51:06.868Z,30.05
2022-07-29T10:53:49.147Z,30.53
2022-07-29T10:56:32.059Z,30.23
2022-07-29T10:59:19.012Z,29.85
2022-07-29T11:01:53.527Z,29.42
2022-07-29T11:04:44.281Z,29.01
2022-07-29T11:07:15.146Z,28.75
2022-07-29T11:09:43.869Z,28.72
2022-07-29T11:12:39.406Z,28.57
2022-07-29T11:15:09.743Z,28.37
2022-07-29T11:17:59.686Z,28.01
2022-07-29T11:20:41.626Z,27.67
2022-07-29T11:23:33.925Z,27.44
2022-07-29T11:26:18.655Z,27.17
2022-07-29T11:29:04.335Z,26.89
2022-07-29T11:31:38.166Z,26.48
2022-07-29T11:34:27.988Z,26.33
2022-07-29T11:37:13.909Z,26.31
2022-07-29T11:39:47.530Z,26.27
2022-07-29T11:42:18.264Z,26.16
2022-07-29T11:45:08.829Z,25.96
2022-07-29T11:47:55.565Z,25.90
2022-07-29T11:50:37.650Z,25.94
2022-07-29T11:53:13.897Z,26.00
2022-07-29T11:55:50.939Z,26.00
2022-07-29T11:58:26.554Z,25.89
2022-07-29T12:00:56.321Z,25.78
2022-07-29T12:03:33.475Z,25.61
2022-07-29T12:06:15.106Z,25.50
2022-07-29T12:08:45.029Z,25.45
2022-07-29T12:11:20.735Z,25.46
2022-07-29T12:13:53.581Z,25.53
2022-07-29T12:16:29.216Z,25.60
2022-07-29T12:19:02.897Z,25.58
2022-07-29T12:21:52.310Z,25.72
2022-07-29T12:24:26.950Z,25.83
2022-07-29T12:26:56.767Z,25.80
2022-07-29T12:29:33.907Z,25.66
2022-07-29T12:32:14.558Z,25.50
2022-07-29T12:34:43.059Z,25.44
2022-07-29T12:37:11.441Z,25.35
2022-07-29T12:39:40.132Z,25.37
2022-07-29T12:42:14.891Z,25.34
2022-07-29T12:44:50.916Z,25.35
2022-07-29T12:47:20.944Z,25.32
2022-07-29T12:49:50.453Z,25.34
2022-07-29T12:52:35.911Z,25.33
2022-07-29T12:55:04.860Z,25.27
2022-07-29T12:57:33.425Z,25.25
2022-07-29T13:00:12.110Z,25.28
2022-07-29T13:02:42.504Z,25.38
2022-07-29T13:05:12.494Z,25.43
2022-07-29T13:07:55.674Z,25.41
2022-07-29T13:10:26.342Z,25.36
2022-07-29T13:13:11.492Z,25.38
2022-07-29T13:15:41.751Z,25.43
2022-07-29T13:18:33.736Z,25.52
2022-07-29T13:21:13.478Z,25.59
2022-07-29T13:23:41.548Z,25.49
2022-07-29T13:26:11.100Z,25.34
2022-07-29T13:28:39.443Z,25.27
2022-07-29T13:31:07.450Z,25.25
2022-07-29T13:33:35.489Z,25.29
2022-07-29T13:36:03.403Z,25.25
2022-07-29T13:38:31.470Z,25.24
2022-07-29T13:40:59.822Z,25.23
2022-07-29T13:43:27.798Z,25.26
2022-07-29T13:45:55.954Z,25.30
2022-07-29T13:48:24.045Z,25.38
2022-07-29T13:50:51.885Z,25.40
2022-07-29T13:53:19.994Z,25.35
2022-07-29T13:55:56.051Z,25.33
2022-07-29T13:58:24.535Z,25.31
2022-07-29T14:00:52.696Z,25.39
2022-07-29T14:03:20.790Z,25.40
2022-07-29T14:05:48.768Z,25.42
2022-07-29T14:08:16.643Z,25.35
2022-07-29T14:10:44.527Z,25.30
2022-07-29T14:13:24.304Z,25.28
2022-07-29T14:15:52.953Z,25.26
2022-07-29T14:18:20.814Z,25.11
2022-07-29T14:20:48.739Z,24.93
2022-07-29T14:23:16.653Z,24.88
2022-07-29T14:25:44.641Z,24.90
2022-07-29T14:28:14.747Z,24.87
2022-07-29T14:30:44.539Z,24.83
2022-07-29T14:33:12.639Z,24.76
2022-07-29T14:35:40.747Z,24.77
2022-07-29T14:38:08.651Z,24.83
2022-07-29T14:40:37.477Z,24.83
2022-07-29T14:43:05.641Z,24.85
2022-07-29T14:45:33.556Z,24.87
2022-07-29T14:48:01.647Z,24.94
2022-07-29T14:50:31.900Z,24.96
2022-07-29T14:53:03.802Z,25.04
2022-07-29T14:55:31.797Z,25.07
2022-07-29T14:58:08.741Z,25.05
2022-07-29T15:00:38.771Z,25.08
2022-07-29T15:03:07.071Z,25.08
2022-07-29T15:05:40.055Z,25.01
2022-07-29T15:08:09.264Z,24.92
2022-07-29T15:10:37.411Z,24.94
2022-07-29T15:13:05.462Z,24.95
2022-07-29T15:15:33.397Z,24.97
2022-07-29T15:18:01.251Z,24.95
2022-07-29T15:20:29.237Z,24.98
2022-07-29T15:22:57.360Z,25.03
2022-07-29T15:25:28.263Z,24.99
2022-07-29T15:28:01.303Z,24.91
2022-07-29T15:30:33.326Z,24.86
2022-07-29T15:33:04.143Z,24.92
2022-07-29T15:35:32.536Z,24.88
2022-07-29T15:38:00.403Z,24.78
2022-07-29T15:40:29.180Z,24.75
2022-07-29T15:42:57.251Z,24.73
2022-07-29T15:45:25.349Z,24.65
2022-07-29T15:47:53.271Z,24.55
2022-07-29T15:50:21.291Z,24.47
2022-07-29T15:52:49.184Z,24.40
2022-07-29T15:55:17.156Z,24.37
2022-07-29T15:57:45.036Z,24.31
2022-07-29T16:00:13.903Z,24.32
2022-07-29T16:02:41.780Z,24.35
2022-07-29T16:05:10.230Z,24.38
2022-07-29T16:07:38.137Z,24.39
2022-07-29T16:10:08.034Z,24.34
2022-07-29T16:12:35.954Z,24.27
2022-07-29T16:15:09.504Z,24.24
2022-07-29T16:17:39.073Z,24.17
2022-07-29T16:20:07.710Z,24.14
2022-07-29T16:22:35.558Z,24.16
2022-07-29T16:25:03.722Z,24.13
2022-07-29T16:27:37.946Z,24.08
2022-07-29T16:30:10.608Z,24.10
2022-07-29T16:32:38.529Z,24.12
2022-07-29T16:35:07.597Z,24.07
2022-07-29T16:37:37.217Z,23.97
2022-07-29T16:40:06.896Z,23.88
2022-07-29T16:42:46.451Z,23.84
2022-07-29T16:45:16.314Z,23.86
2022-07-29T16:47:45.839Z,23.87
2022-07-29T16:50:13.722Z,23.89
2022-07-29T16:52:41.626Z,23.91
2022-07-29T16:55:09.617Z,23.90
2022-07-29T16:57:37.508Z,23.86
2022-07-29T17:00:06.900Z,23.84
2022-07-29T17:02:34.790Z,23.81
2022-07-29T17:05:02.877Z,23.82
2022-07-29T17:07:30.848Z,23.81
2022-07-29T17:10:03.419Z,23.77
2022-07-29T17:12:32.507Z,23.74
2022-07-29T17:15:00.784Z,23.74
2022-07-29T17:17:38.668Z,23.74
2022-07-29T17:20:09.710Z,23.72
2022-07-29T17:22:38.605Z,23.72
2022-07-29T17:25:08.231Z,23.75
2022-07-29T17:27:37.126Z,23.75
2022-07-29T17:30:06.493Z,23.72
2022-07-29T17:32:38.519Z,23.70
2022-07-29T17:35:26.135Z,23.69
2022-07-29T17:37:54.038Z,23.63
2022-07-29T17:40:23.127Z,23.60
2022-07-29T17:42:51.058Z,23.58
2022-07-29T17:45:19.199Z,23.55
2022-07-29T17:47:47.105Z,23.54
2022-07-29T17:50:14.998Z,23.50
2022-07-29T17:52:43.058Z,23.42
2022-07-29T17:55:13.344Z,23.37
2022-07-29T17:57:41.231Z,23.36
2022-07-29T18:00:09.865Z,23.30
2022-07-29T18:02:37.937Z,23.27
2022-07-29T18:05:06.282Z,23.24
2022-07-29T18:07:34.257Z,23.22
2022-07-29T18:10:02.132Z,23.18
2022-07-29T18:12:30.069Z,23.14
2022-07-29T18:14:58.006Z,23.11
2022-07-29T18:17:35.065Z,23.09
2022-07-29T18:20:13.760Z,23.03
2022-07-29T18:22:41.707Z,23.00
2022-07-29T18:25:10.250Z,22.97
2022-07-29T18:27:38.397Z,22.93
2022-07-29T18:30:07.300Z,22.88
2022-07-29T18:32:35.274Z,22.83
2022-07-29T18:35:05.390Z,22.79
2022-07-29T18:38:02.067Z,22.74
2022-07-29T18:40:25.451Z,22.68
2022-07-29T18:42:53.489Z,22.64
2022-07-29T18:45:21.397Z,22.60
2022-07-29T18:47:49.721Z,22.56
2022-07-29T18:50:19.728Z,22.51
2022-07-29T18:52:47.688Z,22.50
2022-07-29T18:55:15.642Z,22.45
2022-07-29T18:57:53.663Z,22.38
2022-07-29T19:00:25.029Z,22.35
2022-07-29T19:02:53.294Z,22.32
2022-07-29T19:05:21.874Z,22.28
2022-07-29T19:07:49.756Z,22.28
2022-07-29T19:10:17.838Z,22.26
2022-07-29T19:12:45.806Z,22.27
2022-07-29T19:15:20.472Z,22.24
2022-07-29T19:17:48.997Z,22.15
2022-07-29T19:20:17.059Z,22.11
2022-07-29T19:22:44.930Z,22.10
2022-07-29T19:25:13.007Z,22.02
2022-07-29T19:27:43.027Z,21.96
2022-07-29T19:30:11.431Z,21.93
2022-07-29T19:32:39.393Z,21.90
2022-07-29T19:35:31.363Z,21.87
2022-07-29T19:38:01.549Z,21.83
2022-07-29T19:40:30.231Z,21.78
2022-07-29T19:42:58.175Z,21.76
2022-07-29T19:45:26.462Z,21.75
2022-07-29T19:48:00.793Z,21.77
2022-07-29T19:50:29.967Z,21.74
2022-07-29T19:52:58.525Z,21.69
2022-07-29T19:55:27.405Z,21.64
2022-07-29T19:57:55.752Z,21.60
2022-07-29T20:00:24.365Z,21.59
2022-07-29T20:02:52.665Z,21.61
2022-07-29T20:05:20.646Z,21.57
2022-07-29T20:07:48.629Z,21.52
2022-07-29T20:10:16.753Z,21.50
2022-07-29T20:12:44.683Z,21.44
2022-07-29T20:15:16.438Z,21.41
2022-07-29T20:17:44.886Z,21.39
2022-07-29T20:20:12.828Z,21.33
2022-07-29T20:22:40.765Z,21.32
2022-07-29T20:25:12.094Z,21.33
2022-07-29T20:27:40.785Z,21.28
2022-07-29T20:30:09.465Z,21.20
2022-07-29T20:32:40.821Z,21.16
2022-07-29T20:35:10.152Z,21.15
2022-07-29T20:37:52.437Z,21.12
2022-07-29T20:40:25.937Z,21.09
2022-07-29T20:42:55.095Z,21.11
2022-07-29T20:45:23.767Z,21.12
2022-07-29T20:47:52.220Z,21.12
2022-07-29T20:50:23.748Z,21.11
2022-07-29T20:52:52.925Z,21.06
2022-07-29T20:55:21.349Z,20.99
2022-07-29T20:57:49.335Z,20.94
2022-07-29T21:00:17.333Z,20.90
2022-07-29T21:02:45.214Z,20.85
2022-07-29T21:05:13.140Z,20.81
2022-07-29T21:07:41.054Z,20.75
2022-07-29T21:10:09.037Z,20.71
2022-07-29T21:12:37.028Z,20.65
2022-07-29T21:15:06.689Z,20.61
2022-07-29T21:17:40.751Z,20.59
2022-07-29T21:20:09.079Z,20.59
2022-07-29T21:22:36.952Z,20.53
2022-07-29T21:25:05.819Z,20.49
2022-07-29T21:27:52.693Z,20.48
2022-07-29T21:30:21.333Z,20.45
2022-07-29T21:32:49.527Z,20.44
2022-07-29T21:35:35.883Z,20.43
2022-07-29T21:38:05.350Z,20.43
2022-07-29T21:40:33.215Z,20.43
2022-07-29T21:43:01.272Z,20.42
2022-07-29T21:45:29.245Z,20.33
2022-07-29T21:47:57.090Z,20.30
2022-07-29T21:50:25.070Z,20.29
2022-07-29T21:52:52.899Z,20.25
2022-07-29T21:55:21.259Z,20.21
2022-07-29T21:57:54.416Z,20.18
2022-07-29T22:00:25.616Z,20.15
2022-07-29T22:02:53.641Z,20.10
2022-07-29T22:05:21.992Z,20.08
2022-07-29T22:07:54.462Z,20.09
2022-07-29T22:10:25.837Z,20.10
2022-07-29T22:12:55.566Z,20.07
2022-07-29T22:15:24.571Z,20.02
2022-07-29T22:17:53.233Z,19.99
2022-07-29T22:20:21.370Z,19.96
2022-07-29T22:22:49.330Z,19.96
2022-07-29T22:25:17.898Z,19.96
2022-07-29T22:27:45.978Z,19.95
2022-07-29T22:30:14.800Z,19.96
2022-07-29T22:32:42.750Z,19.96
2022-07-29T22:35:11.047Z,19.94
2022-07-29T22:37:39.309Z,19.93
2022-07-29T22:40:07.690Z,19.90
2022-07-29T22:42:35.918Z,19.93
2022-07-29T22:45:10.566Z,19.93
2022-07-29T22:47:47.881Z,19.91
2022-07-29T22:50:17.271Z,19.87
2022-07-29T22:52:46.099Z,19.85
2022-07-29T22:55:14.807Z,19.85
2022-07-29T22:57:43.268Z,19.83
2022-07-29T23:00:12.859Z,19.83
2022-07-29T23:02:41.633Z,19.85
2022-07-29T23:05:10.718Z,19.82
2022-07-29T23:07:38.712Z,19.83
2022-07-29T23:10:06.919Z,19.84
2022-07-29T23:12:35.005Z,19.83
2022-07-29T23:15:04.531Z,19.84
2022-07-29T23:17:36.061Z,19.82
2022-07-29T23:20:07.896Z,19.82
2022-07-29T23:22:36.235Z,19.82
2022-07-29T23:25:05.275Z,19.84
2022-07-29T23:27:33.251Z,19.81
2022-07-29T23:30:01.186Z,19.79
2022-07-29T23:32:29.095Z,19.78
2022-07-29T23:34:56.991Z,19.76
2022-07-29T23:37:26.609Z,19.76
2022-07-29T23:39:54.953Z,19.79
2022-07-29T23:42:23.197Z,19.81
2022-07-29T23:44:51.298Z,19.79
2022-07-29T23:47:19.123Z,19.76
2022-07-29T23:49:49.914Z,19.76
2022-07-29T23:52:18.258Z,19.75
2022-07-29T23:54:46.271Z,19.73
2022-07-29T23:57:14.245Z,19.69
2022-07-29T23:59:42.250Z,19.67
